Manacor, Spain

5:38 PM CEST on September 03, 2015 (GMT +0200)
Vilafranca De Bonany (Parc) | | Change Station
CLOSE
Current Station
Personal Weather Station
Location: Vilafranca De Bonany, ISLAS BALEARES
Elevation: 308 ft
Nearby Weather Stations

Elev 308 ft 39.57 °N, 3.09 °E | Updated 11 seconds ago

Scattered Clouds
Scattered Clouds
85.8 °F
Feels Like 90 °F
N
8.1
Wind Variable Wind from SSW
Gusts 8.1 mph

Today
High -- | Low -- °F
--% Chance of Precip.
Yesterday
High -- | Low -- °F
Precip. -- in
7:16 AM 8:15 PM
Waning Gibbous, 69% visible
Pressure 29.86 in
Visibility 6.2 miles
Clouds Few 2000 ft
Scattered Clouds 3000 ft
Heat Index 90 °F
Dew Point 69 °F
Humidity 58%
Rainfall 0.00 in
Snow Depth Not available.
UV 3 out of 12
Pollen Not available.
Air Quality Not available.
Flu Activity Not available.
METAR LEPA 031530Z 22009KT 9999 FEW020 SCT030 28/23 Q1011 NOSIG
Pressure 29.86 in
Visibility 6.2 miles
Clouds Few 2000 ft
Scattered Clouds 3000 ft
Heat Index 90 °F
Dew Point 69 °F
Humidity 58%
Rainfall 0.00 in
Snow Depth Not available.
UV 3 out of 12
Pollen Not available.
Air Quality Not available.
Flu Activity Not available.
METAR LEPA 031530Z 22009KT 9999 FEW020 SCT030 28/23 Q1011 NOSIG

10-Day Weather Forecast

×

Almanac

Astronomy

Sep. 03, 2015 Rise Set
Actual Time
Civil Twilight
Nautical Twilight
Astronomical Twilight
Moon
Length of Visible Light
Length of Day
Tomorrow will be .
, % of the Moon is Illuminated

Today's Extremes

Country Highs Country Lows

Community

WunderPhotos

Upload Photos

1,851,972 photos uploaded!

WunderBlogs® & News

Nearby

Air Quality

  Air Quality AQ Index Pollutant
Not available.

Snow Depth

Station Depth Elevation

Earthquake Activity

City Distance Mag. Time & Date
Minimum magnitude displayed is 2.5.

Coastal Water Temperatures

Place Temperature

Stations

Nearby Weather Stations

Station Location Temp. Windchill Dew Point Humidity Wind Precip. Elev Updated Type